createdAt,value
2022-12-16T00:00:51.921Z,996.83
2022-12-16T00:03:52.149Z,996.78
2022-12-16T00:06:51.874Z,996.8
2022-12-16T00:09:51.877Z,996.8
2022-12-16T00:12:51.948Z,996.85
2022-12-16T00:15:51.896Z,996.88
2022-12-16T00:18:52.136Z,996.85
2022-12-16T00:21:51.868Z,996.82
2022-12-16T00:24:51.873Z,996.82
2022-12-16T00:27:53.837Z,996.8
2022-12-16T00:30:51.947Z,996.84
2022-12-16T00:33:51.869Z,996.83
2022-12-16T00:36:51.860Z,996.83
2022-12-16T00:39:51.862Z,996.8
2022-12-16T00:42:51.860Z,996.82
2022-12-16T00:45:52.087Z,996.83
2022-12-16T00:48:51.904Z,996.74
2022-12-16T00:51:51.886Z,996.74
2022-12-16T00:54:51.856Z,996.76
2022-12-16T00:57:51.860Z,996.74
2022-12-16T01:00:51.899Z,996.69
2022-12-16T01:03:51.898Z,996.73
2022-12-16T01:06:51.843Z,996.73
2022-12-16T01:09:51.859Z,996.81
2022-12-16T01:12:51.852Z,996.84
2022-12-16T01:15:51.845Z,996.89
2022-12-16T01:18:51.847Z,996.87
2022-12-16T01:21:51.851Z,996.96
2022-12-16T01:24:51.847Z,996.96
2022-12-16T01:27:51.839Z,997
2022-12-16T01:30:51.844Z,997.01
2022-12-16T01:33:51.842Z,997.1
2022-12-16T01:36:51.857Z,997.1
2022-12-16T01:39:52.273Z,997.2
2022-12-16T01:42:51.835Z,997.2
2022-12-16T01:45:51.861Z,997.25
2022-12-16T01:48:51.838Z,997.28
2022-12-16T01:51:52.529Z,997.34
2022-12-16T01:54:51.837Z,997.37
2022-12-16T01:57:51.831Z,997.37
2022-12-16T02:00:51.885Z,997.37
2022-12-16T02:03:51.838Z,997.37
2022-12-16T02:06:51.827Z,997.42
2022-12-16T02:09:51.821Z,997.43
2022-12-16T02:12:51.830Z,997.4
2022-12-16T02:15:51.825Z,997.46
2022-12-16T02:18:51.828Z,997.46
2022-12-16T02:21:51.954Z,997.44
2022-12-16T02:24:51.810Z,997.42
2022-12-16T02:27:51.824Z,997.43
2022-12-16T02:30:51.880Z,997.38
2022-12-16T02:33:51.817Z,997.4
2022-12-16T02:36:51.812Z,997.36
2022-12-16T02:39:51.814Z,997.35
2022-12-16T02:42:51.814Z,997.37
2022-12-16T02:45:51.851Z,997.36
2022-12-16T02:48:51.812Z,997.35
2022-12-16T02:51:51.812Z,997.35
2022-12-16T02:54:51.810Z,997.32
2022-12-16T02:57:51.808Z,997.33
2022-12-16T03:00:51.860Z,997.33
2022-12-16T03:03:51.801Z,997.37
2022-12-16T03:06:51.806Z,997.33
2022-12-16T03:09:51.810Z,997.34
2022-12-16T03:12:51.802Z,997.4
2022-12-16T03:15:51.803Z,997.41
2022-12-16T03:18:51.797Z,997.42
2022-12-16T03:21:51.794Z,997.38
2022-12-16T03:24:51.794Z,997.35
2022-12-16T03:27:51.786Z,997.36
2022-12-16T03:30:51.870Z,997.34
2022-12-16T03:33:51.791Z,997.38
2022-12-16T03:36:51.797Z,997.35
2022-12-16T03:39:51.787Z,997.38
2022-12-16T03:42:51.784Z,997.35
2022-12-16T03:45:51.808Z,997.42
2022-12-16T03:48:51.785Z,997.43
2022-12-16T03:51:51.776Z,997.47
2022-12-16T03:54:51.773Z,997.54
2022-12-16T03:57:51.779Z,997.57
2022-12-16T04:00:51.769Z,997.6
2022-12-16T04:03:51.848Z,997.61
2022-12-16T04:06:51.774Z,997.62
2022-12-16T04:09:51.770Z,997.63
2022-12-16T04:12:51.773Z,997.62
2022-12-16T04:15:51.799Z,997.63
2022-12-16T04:18:51.769Z,997.69
2022-12-16T04:21:51.761Z,997.75
2022-12-16T04:24:51.763Z,997.74
2022-12-16T04:27:51.776Z,997.75
2022-12-16T04:30:51.814Z,997.77
2022-12-16T04:33:51.765Z,997.82
2022-12-16T04:36:51.767Z,997.82
2022-12-16T04:39:51.761Z,997.86
2022-12-16T04:42:51.755Z,997.95
2022-12-16T04:45:51.758Z,997.97
2022-12-16T04:48:51.760Z,998
2022-12-16T04:51:51.756Z,998.02
2022-12-16T04:54:51.758Z,998
2022-12-16T04:57:51.759Z,998.03
2022-12-16T05:00:51.758Z,998.09
2022-12-16T05:03:51.811Z,998.14
2022-12-16T05:06:51.747Z,998.17
2022-12-16T05:09:51.749Z,998.25
2022-12-16T05:12:51.789Z,998.28
2022-12-16T05:15:51.780Z,998.34
2022-12-16T05:18:51.745Z,998.43
2022-12-16T05:21:51.749Z,998.39
2022-12-16T05:24:53.109Z,998.46
2022-12-16T05:27:51.741Z,998.45
2022-12-16T05:30:51.793Z,998.52
2022-12-16T05:33:51.744Z,998.57
2022-12-16T05:36:51.742Z,998.6
2022-12-16T05:39:51.741Z,998.69
2022-12-16T05:42:51.741Z,998.8
2022-12-16T05:45:51.794Z,998.86
2022-12-16T05:48:51.736Z,998.9
2022-12-16T05:51:51.728Z,998.91
2022-12-16T05:54:51.743Z,998.93
2022-12-16T05:57:51.746Z,998.97
2022-12-16T06:00:51.736Z,999.02
2022-12-16T06:03:51.805Z,999.09
2022-12-16T06:06:51.721Z,999.15
2022-12-16T06:09:56.274Z,999.17
2022-12-16T06:12:51.721Z,999.21
2022-12-16T06:15:51.768Z,999.22
2022-12-16T06:18:51.715Z,999.27
2022-12-16T06:21:51.717Z,999.3
2022-12-16T06:24:51.722Z,999.33
2022-12-16T06:27:51.724Z,999.35
2022-12-16T06:30:51.720Z,999.42
2022-12-16T06:33:54.769Z,999.55
2022-12-16T06:36:51.717Z,999.57
2022-12-16T06:39:53.037Z,999.57
2022-12-16T06:42:51.716Z,999.62
2022-12-16T06:45:51.754Z,999.64
2022-12-16T06:48:51.711Z,999.7
2022-12-16T06:51:51.710Z,999.77
2022-12-16T06:54:51.700Z,999.84
2022-12-16T06:57:51.704Z,999.91
2022-12-16T07:00:51.756Z,999.99
2022-12-16T07:03:51.700Z,1000.04
2022-12-16T07:06:51.702Z,1000.07
2022-12-16T07:09:51.698Z,1000.09
2022-12-16T07:12:51.719Z,1000.14
2022-12-16T07:15:51.701Z,1000.19
2022-12-16T07:18:51.696Z,1000.24
2022-12-16T07:21:51.694Z,1000.29
2022-12-16T07:24:51.690Z,1000.39
2022-12-16T07:27:51.689Z,1000.4
2022-12-16T07:30:51.694Z,1000.46
2022-12-16T07:33:51.695Z,1000.52
2022-12-16T07:36:51.688Z,1000.54
2022-12-16T07:39:55.056Z,1000.59
2022-12-16T07:42:51.692Z,1000.67
2022-12-16T07:45:51.709Z,1000.68
2022-12-16T07:48:51.682Z,1000.69
2022-12-16T07:51:51.680Z,1000.71
2022-12-16T07:54:51.684Z,1000.77
2022-12-16T07:57:51.679Z,1000.86
2022-12-16T08:00:51.695Z,1000.93
2022-12-16T08:03:51.715Z,1000.97
2022-12-16T08:06:51.675Z,1001.03
2022-12-16T08:09:51.670Z,1001.04
2022-12-16T08:12:51.677Z,1001.04
2022-12-16T08:15:51.670Z,1001.08
2022-12-16T08:18:51.674Z,1001.13
2022-12-16T08:21:51.664Z,1001.19
2022-12-16T08:24:53.752Z,1001.22
2022-12-16T08:27:51.652Z,1001.26
2022-12-16T08:30:51.715Z,1001.34
2022-12-16T08:33:51.641Z,1001.42
2022-12-16T08:36:51.645Z,1001.48
2022-12-16T08:40:10.922Z,1001.56
2022-12-16T08:42:51.635Z,1001.62
2022-12-16T08:45:51.711Z,1001.67
2022-12-16T08:48:51.637Z,1001.73
2022-12-16T08:51:51.649Z,1001.73
2022-12-16T08:54:51.640Z,1001.76
2022-12-16T08:57:51.642Z,1001.88
2022-12-16T09:00:51.634Z,1001.95
2022-12-16T09:03:51.693Z,1001.99
2022-12-16T09:06:51.634Z,1002.02
2022-12-16T09:09:51.633Z,1002.1
2022-12-16T09:12:51.632Z,1002.07
2022-12-16T09:15:52.007Z,1002.12
2022-12-16T09:18:51.985Z,1002.19
2022-12-16T09:21:51.980Z,1002.25
2022-12-16T09:24:51.989Z,1002.23
2022-12-16T09:27:51.979Z,1002.29
2022-12-16T09:30:52.014Z,1002.32
2022-12-16T09:33:51.981Z,1002.32
2022-12-16T09:36:51.979Z,1002.32
2022-12-16T09:39:51.973Z,1002.28
2022-12-16T09:42:51.976Z,1002.34
2022-12-16T09:45:52.041Z,1002.35
2022-12-16T09:48:51.972Z,1002.36
2022-12-16T09:51:51.977Z,1002.38
2022-12-16T09:54:51.980Z,1002.37
2022-12-16T09:57:51.976Z,1002.37
2022-12-16T10:00:51.979Z,1002.33
2022-12-16T10:03:52.025Z,1002.38
2022-12-16T10:06:51.976Z,1002.39
2022-12-16T10:09:51.978Z,1002.39
2022-12-16T10:12:51.986Z,1002.37
2022-12-16T10:15:52.024Z,1002.41
2022-12-16T10:18:52.115Z,1002.43
2022-12-16T10:21:52.037Z,1002.38
2022-12-16T10:24:51.981Z,1002.4
2022-12-16T10:27:51.973Z,1002.4
2022-12-16T10:30:52.018Z,1002.45
2022-12-16T10:33:51.978Z,1002.51
2022-12-16T10:36:51.981Z,1002.52
2022-12-16T10:39:51.985Z,1002.54
2022-12-16T10:42:51.984Z,1002.57
2022-12-16T10:45:51.996Z,1002.59
2022-12-16T10:48:56.360Z,1002.62
2022-12-16T10:51:51.978Z,1002.65
2022-12-16T10:54:51.969Z,1002.67
2022-12-16T10:57:51.974Z,1002.69
2022-12-16T11:00:51.979Z,1002.67
2022-12-16T11:03:52.002Z,1002.7
2022-12-16T11:06:51.976Z,1002.69
2022-12-16T11:09:51.971Z,1002.66
2022-12-16T11:12:51.972Z,1002.66
2022-12-16T11:15:51.981Z,1002.65
2022-12-16T11:18:51.968Z,1002.61
2022-12-16T11:21:51.964Z,1002.65
2022-12-16T11:24:51.967Z,1002.67
2022-12-16T11:27:51.969Z,1002.7
2022-12-16T11:30:52.033Z,1002.75
2022-12-16T11:33:51.992Z,1002.78
2022-12-16T11:36:51.971Z,1002.82
2022-12-16T11:39:51.962Z,1002.78
2022-12-16T11:42:51.967Z,1002.85
2022-12-16T11:45:51.965Z,1002.84
2022-12-16T11:48:51.961Z,1002.86
2022-12-16T11:51:54.422Z,1002.91
2022-12-16T11:54:51.965Z,1002.91
2022-12-16T11:57:51.990Z,1002.9
2022-12-16T12:00:51.967Z,1002.9
2022-12-16T12:03:52.096Z,1002.94
2022-12-16T12:06:51.966Z,1003
2022-12-16T12:09:51.965Z,1003
2022-12-16T12:12:51.965Z,1003.06
2022-12-16T12:15:51.974Z,1003.1
2022-12-16T12:18:51.961Z,1003.11
2022-12-16T12:21:51.954Z,1003.11
2022-12-16T12:24:56.235Z,1003.15
2022-12-16T12:27:51.955Z,1003.14
2022-12-16T12:30:51.952Z,1003.18
2022-12-16T12:33:51.949Z,1003.2
2022-12-16T12:36:51.957Z,1003.25
2022-12-16T12:39:51.949Z,1003.27
2022-12-16T12:42:52.016Z,1003.22
2022-12-16T12:45:51.952Z,1003.3
2022-12-16T12:48:55.919Z,1003.36
2022-12-16T12:51:51.945Z,1003.41
2022-12-16T12:54:51.943Z,1003.4
2022-12-16T12:57:51.942Z,1003.39
2022-12-16T13:00:52.014Z,1003.43
2022-12-16T13:03:51.935Z,1003.5
2022-12-16T13:06:51.938Z,1003.51
2022-12-16T13:09:51.942Z,1003.51
2022-12-16T13:12:51.931Z,1003.5
2022-12-16T13:15:51.938Z,1003.49
2022-12-16T13:18:51.929Z,1003.54
2022-12-16T13:21:51.926Z,1003.64
2022-12-16T13:24:51.945Z,1003.6
2022-12-16T13:27:51.933Z,1003.61
2022-12-16T13:30:51.928Z,1003.62
2022-12-16T13:33:51.921Z,1003.66
2022-12-16T13:36:51.930Z,1003.68
2022-12-16T13:39:51.923Z,1003.73
2022-12-16T13:42:51.921Z,1003.79
2022-12-16T13:45:51.942Z,1003.84
2022-12-16T13:48:51.913Z,1003.89
2022-12-16T13:51:51.916Z,1003.93
2022-12-16T13:54:51.916Z,1004.01
2022-12-16T13:57:51.909Z,1004.04
2022-12-16T14:00:51.962Z,1004.05
2022-12-16T14:03:51.977Z,1004.09
2022-12-16T14:06:51.909Z,1004.15
2022-12-16T14:09:51.921Z,1004.15
2022-12-16T14:12:51.912Z,1004.17
2022-12-16T14:15:51.911Z,1004.21
2022-12-16T14:18:51.900Z,1004.21
2022-12-16T14:21:51.910Z,1004.3
2022-12-16T14:24:51.903Z,1004.32
2022-12-16T14:27:51.905Z,1004.38
2022-12-16T14:30:51.896Z,1004.44
2022-12-16T14:33:51.893Z,1004.47
2022-12-16T14:36:51.901Z,1004.49
2022-12-16T14:39:51.892Z,1004.52
2022-12-16T14:42:51.901Z,1004.57
2022-12-16T14:45:51.963Z,1004.63
2022-12-16T14:48:51.921Z,1004.7
2022-12-16T14:51:51.909Z,1004.7
2022-12-16T14:54:51.905Z,1004.71
2022-12-16T14:57:51.899Z,1004.83
2022-12-16T15:00:51.971Z,1004.87
2022-12-16T15:03:51.990Z,1004.94
2022-12-16T15:06:51.894Z,1004.92
2022-12-16T15:09:51.897Z,1004.92
2022-12-16T15:12:51.890Z,1004.98
2022-12-16T15:15:51.899Z,1005.04
2022-12-16T15:18:51.915Z,1005.09
2022-12-16T15:21:51.886Z,1005.2
2022-12-16T15:24:51.891Z,1005.18
2022-12-16T15:27:51.894Z,1005.26
2022-12-16T15:30:51.987Z,1005.33
2022-12-16T15:33:51.887Z,1005.37
2022-12-16T15:36:51.877Z,1005.43
2022-12-16T15:39:51.878Z,1005.42
2022-12-16T15:42:51.885Z,1005.45
2022-12-16T15:45:51.940Z,1005.51
2022-12-16T15:48:51.877Z,1005.58
2022-12-16T15:51:51.875Z,1005.61
2022-12-16T15:54:51.873Z,1005.61
2022-12-16T15:57:51.881Z,1005.61
2022-12-16T16:00:51.876Z,1005.71
2022-12-16T16:03:51.921Z,1005.76
2022-12-16T16:06:51.877Z,1005.78
2022-12-16T16:09:51.887Z,1005.82
2022-12-16T16:12:51.880Z,1005.86
2022-12-16T16:15:51.929Z,1005.91
2022-12-16T16:18:51.874Z,1005.92
2022-12-16T16:21:51.870Z,1005.97
2022-12-16T16:24:51.872Z,1006
2022-12-16T16:27:51.875Z,1006.02
2022-12-16T16:30:51.955Z,1006.07
2022-12-16T16:33:51.870Z,1006.05
2022-12-16T16:36:51.859Z,1006.11
2022-12-16T16:39:51.869Z,1006.08
2022-12-16T16:42:51.868Z,1006.16
2022-12-16T16:45:51.867Z,1006.19
2022-12-16T16:48:51.875Z,1006.29
2022-12-16T16:51:51.865Z,1006.28
2022-12-16T16:54:51.865Z,1006.33
2022-12-16T16:57:51.863Z,1006.38
2022-12-16T17:00:51.937Z,1006.36
2022-12-16T17:03:52.034Z,1006.39
2022-12-16T17:06:51.864Z,1006.44
2022-12-16T17:09:51.868Z,1006.5
2022-12-16T17:12:51.868Z,1006.53
2022-12-16T17:15:51.988Z,1006.58
2022-12-16T17:18:52.584Z,1006.61
2022-12-16T17:21:51.866Z,1006.63
2022-12-16T17:24:54.262Z,1006.69
2022-12-16T17:27:51.861Z,1006.68
2022-12-16T17:30:51.857Z,1006.74
2022-12-16T17:33:51.850Z,1006.78
2022-12-16T17:36:51.854Z,1006.83
2022-12-16T17:39:51.854Z,1006.89
2022-12-16T17:42:51.850Z,1006.94
2022-12-16T17:45:51.858Z,1006.96
2022-12-16T17:48:51.846Z,1006.95
2022-12-16T17:51:51.854Z,1007.02
2022-12-16T17:54:51.850Z,1007.03
2022-12-16T17:57:51.848Z,1007.03
2022-12-16T18:00:51.846Z,1007.08
2022-12-16T18:03:51.889Z,1007.1
2022-12-16T18:06:51.847Z,1007.16
2022-12-16T18:09:51.851Z,1007.2
2022-12-16T18:12:51.839Z,1007.23
2022-12-16T18:15:51.908Z,1007.25
2022-12-16T18:18:51.844Z,1007.25
2022-12-16T18:21:51.839Z,1007.27
2022-12-16T18:24:51.840Z,1007.3
2022-12-16T18:27:51.840Z,1007.33
2022-12-16T18:30:51.837Z,1007.32
2022-12-16T18:33:51.830Z,1007.37
2022-12-16T18:36:51.830Z,1007.43
2022-12-16T18:39:51.832Z,1007.48
2022-12-16T18:42:51.835Z,1007.49
2022-12-16T18:45:51.867Z,1007.52
2022-12-16T18:48:51.832Z,1007.63
2022-12-16T18:51:51.831Z,1007.64
2022-12-16T18:54:51.829Z,1007.7
2022-12-16T18:57:51.900Z,1007.72
2022-12-16T19:00:51.883Z,1007.7
2022-12-16T19:03:51.829Z,1007.72
2022-12-16T19:06:51.828Z,1007.77
2022-12-16T19:09:51.835Z,1007.83
2022-12-16T19:12:51.829Z,1007.86
2022-12-16T19:15:51.840Z,1007.89
2022-12-16T19:18:51.827Z,1008
2022-12-16T19:21:52.393Z,1008.03
2022-12-16T19:24:51.912Z,1008.09
2022-12-16T19:27:52.096Z,1008.07
2022-12-16T19:30:51.835Z,1008.12
2022-12-16T19:33:51.847Z,1008.13
2022-12-16T19:36:51.820Z,1008.2
2022-12-16T19:39:51.893Z,1008.23
2022-12-16T19:42:51.868Z,1008.22
2022-12-16T19:45:51.864Z,1008.25
2022-12-16T19:48:51.827Z,1008.33
2022-12-16T19:51:51.919Z,1008.39
2022-12-16T19:54:51.818Z,1008.39
2022-12-16T19:57:51.821Z,1008.43
2022-12-16T20:00:51.853Z,1008.41
2022-12-16T20:03:52.150Z,1008.52
2022-12-16T20:06:51.803Z,1008.51
2022-12-16T20:09:51.809Z,1008.56
2022-12-16T20:12:51.816Z,1008.63
2022-12-16T20:15:51.882Z,1008.68
2022-12-16T20:18:51.815Z,1008.73
2022-12-16T20:21:56.247Z,1008.73
2022-12-16T20:24:51.804Z,1008.77
2022-12-16T20:27:51.815Z,1008.81
2022-12-16T20:30:51.814Z,1008.86
2022-12-16T20:33:51.802Z,1008.88
2022-12-16T20:36:51.806Z,1008.86
2022-12-16T20:39:56.609Z,1008.91
2022-12-16T20:42:53.287Z,1008.93
2022-12-16T20:45:51.856Z,1008.92
2022-12-16T20:48:51.792Z,1008.94
2022-12-16T20:51:51.810Z,1009
2022-12-16T20:54:51.812Z,1009.1
2022-12-16T20:57:51.802Z,1009.14
2022-12-16T21:00:51.868Z,1009.22
2022-12-16T21:03:51.780Z,1009.3
2022-12-16T21:06:51.836Z,1009.34
2022-12-16T21:09:51.811Z,1009.39
2022-12-16T21:12:51.794Z,1009.48
2022-12-16T21:15:51.788Z,1009.5
2022-12-16T21:18:51.784Z,1009.54
2022-12-16T21:21:51.783Z,1009.54
2022-12-16T21:24:51.817Z,1009.6
2022-12-16T21:27:51.785Z,1009.62
2022-12-16T21:30:51.789Z,1009.64
2022-12-16T21:33:51.827Z,1009.66
2022-12-16T21:36:51.778Z,1009.69
2022-12-16T21:39:51.771Z,1009.69
2022-12-16T21:42:51.775Z,1009.7
2022-12-16T21:45:51.783Z,1009.78
2022-12-16T21:48:51.777Z,1009.84
2022-12-16T21:51:51.760Z,1009.84
2022-12-16T21:54:51.768Z,1009.89
2022-12-16T21:57:51.764Z,1009.92
2022-12-16T22:00:53.555Z,1009.98
2022-12-16T22:03:51.764Z,1009.98
2022-12-16T22:06:51.779Z,1009.99
2022-12-16T22:09:51.759Z,1010.04
2022-12-16T22:12:51.764Z,1010.06
2022-12-16T22:15:51.754Z,1010.07
2022-12-16T22:18:51.773Z,1010.12
2022-12-16T22:21:51.757Z,1010.17
2022-12-16T22:24:51.750Z,1010.2
2022-12-16T22:27:51.741Z,1010.26
2022-12-16T22:30:51.746Z,1010.29
2022-12-16T22:33:51.946Z,1010.32
2022-12-16T22:36:51.759Z,1010.36
2022-12-16T22:39:51.746Z,1010.37
2022-12-16T22:42:51.766Z,1010.42
2022-12-16T22:45:51.749Z,1010.49
2022-12-16T22:48:51.743Z,1010.49
2022-12-16T22:51:51.744Z,1010.51
2022-12-16T22:54:51.737Z,1010.54
2022-12-16T22:57:53.478Z,1010.63
2022-12-16T23:00:52.094Z,1010.65
2022-12-16T23:03:51.956Z,1010.68
2022-12-16T23:06:51.940Z,1010.72
2022-12-16T23:09:53.182Z,1010.71
2022-12-16T23:12:51.733Z,1010.72
2022-12-16T23:15:51.957Z,1010.77
2022-12-16T23:18:52.026Z,1010.81
2022-12-16T23:21:51.731Z,1010.86
2022-12-16T23:24:51.726Z,1010.86
2022-12-16T23:27:51.725Z,1010.92
2022-12-16T23:30:51.737Z,1010.97
2022-12-16T23:33:51.724Z,1010.99
2022-12-16T23:36:51.720Z,1011.01
2022-12-16T23:39:51.737Z,1010.97
2022-12-16T23:42:51.719Z,1011.09
2022-12-16T23:45:51.715Z,1011.14
2022-12-16T23:48:51.714Z,1011.12
2022-12-16T23:51:51.720Z,1011.13
2022-12-16T23:54:51.716Z,1011.15
2022-12-16T23:57:51.712Z,1011.19
